Time;durP1;ratioP1;P1;durP2;ratioP2;P2;SDS_P1;SDS_P2;PMS_P1;PMS_P2;Temp;Humidity;BMP_temperature;BMP_pressure;BME280_temperature;BME280_humidity;BME280_pressure;Samples;Min_cycle;Max_cycle;Signal;HPM_P1;HPM_P2
2021/07/18 00:02:23;;;;;;;13.63;6.80;;;;;;;;;;6227629;23;20201;-87
2021/07/18 00:05:28;;;;;;;12.50;7.40;;;;;;;;;;6226936;23;20171;-87
2021/07/18 00:08:34;;;;;;;13.15;6.82;;;;;;;;;;6226417;23;20211;-88
2021/07/18 00:11:39;;;;;;;10.95;6.60;;;;;;;;;;6226402;23;20171;-89
2021/07/18 00:14:46;;;;;;;12.05;7.15;;;;;;;;;;6225782;23;20171;-87
2021/07/18 00:17:51;;;;;;;14.35;7.47;;;;;;;;;;6225511;23;20175;-87
2021/07/18 00:20:56;;;;;;;15.32;8.32;;;;;;;;;;6225607;23;20172;-87
2021/07/18 00:24:01;;;;;;;13.70;8.18;;;;;;;;;;6227339;23;20179;-85
2021/07/18 00:27:06;;;;;;;14.27;8.20;;;;;;;;;;6227388;23;20167;-87
2021/07/18 00:30:13;;;;;;;16.80;8.63;;;;;;;;;;6227259;23;20190;-87
2021/07/18 00:33:19;;;;;;;16.60;8.63;;;;;;;;;;6227274;23;20179;-86
2021/07/18 00:36:24;;;;;;;14.55;8.90;;;;;;;;;;6228074;23;20234;-88
2021/07/18 00:39:29;;;;;;;15.90;8.77;;;;;;;;;;6226888;23;20210;-88
2021/07/18 00:42:34;;;;;;;15.02;8.98;;;;;;;;;;6223748;23;20175;-88
2021/07/18 00:45:41;;;;;;;12.23;8.15;;;;;;;;;;6224235;23;20219;-89
2021/07/18 00:48:46;;;;;;;16.52;8.80;;;;;;;;;;6223728;23;20171;-87
2021/07/18 00:51:51;;;;;;;15.10;8.80;;;;;;;;;;6223578;23;20246;-87
2021/07/18 00:54:55;;;;;;;16.15;8.90;;;;;;;;;;6223207;23;20174;-88
2021/07/18 00:58:01;;;;;;;16.20;9.65;;;;;;;;;;6222659;23;20167;-88
2021/07/18 01:01:08;;;;;;;15.23;8.52;;;;;;;;;;6224137;23;20183;-87
2021/07/18 01:04:13;;;;;;;15.82;8.52;;;;;;;;;;6223757;23;20255;-88
2021/07/18 01:07:19;;;;;;;11.93;7.50;;;;;;;;;;6222072;23;20224;-88
2021/07/18 01:10:24;;;;;;;12.60;7.95;;;;;;;;;;6221716;23;20199;-88
2021/07/18 01:13:29;;;;;;;14.30;8.10;;;;;;;;;;6222049;23;20167;-88
2021/07/18 01:16:35;;;;;;;16.17;8.95;;;;;;;;;;6221780;23;20210;-89
2021/07/18 01:19:41;;;;;;;15.70;8.60;;;;;;;;;;6222386;23;20167;-88
2021/07/18 01:22:48;;;;;;;13.68;8.15;;;;;;;;;;6223757;23;20167;-88
2021/07/18 01:25:53;;;;;;;14.43;8.80;;;;;;;;;;6224175;23;20175;-89
2021/07/18 01:28:59;;;;;;;13.55;8.48;;;;;;;;;;6224099;23;20171;-88
2021/07/18 01:32:04;;;;;;;14.65;8.40;;;;;;;;;;6223418;23;20609;-86
2021/07/18 01:35:10;;;;;;;16.50;9.00;;;;;;;;;;6222755;23;20175;-87
2021/07/18 01:38:17;;;;;;;14.48;9.05;;;;;;;;;;6223250;23;20192;-87
2021/07/18 01:41:22;;;;;;;17.85;9.40;;;;;;;;;;6222599;23;20610;-88
2021/07/18 01:44:27;;;;;;;16.77;9.60;;;;;;;;;;6223451;23;20287;-88
2021/07/18 01:47:31;;;;;;;16.30;9.60;;;;;;;;;;6224205;23;20171;-90
2021/07/18 01:50:37;;;;;;;15.05;8.55;;;;;;;;;;6225977;23;20247;-88
2021/07/18 01:53:43;;;;;;;15.13;8.80;;;;;;;;;;6227773;23;20186;-90
2021/07/18 01:56:49;;;;;;;15.90;8.60;;;;;;;;;;6227615;23;20180;-90
2021/07/18 01:59:54;;;;;;;14.15;8.60;;;;;;;;;;6226830;23;20171;-89
2021/07/18 02:02:59;;;;;;;14.80;9.02;;;;;;;;;;6226245;23;20202;-88
2021/07/18 02:06:05;;;;;;;13.82;8.60;;;;;;;;;;6224199;23;20495;-88
2021/07/18 02:09:12;;;;;;;11.98;8.10;;;;;;;;;;6227547;23;20159;-87
2021/07/18 02:12:16;;;;;;;12.55;8.18;;;;;;;;;;6228254;23;20163;-88
2021/07/18 02:15:22;;;;;;;14.95;7.85;;;;;;;;;;6228908;23;20171;-88
2021/07/18 02:18:27;;;;;;;14.85;8.52;;;;;;;;;;6227464;23;20263;-87
2021/07/18 02:21:32;;;;;;;15.07;7.85;;;;;;;;;;6227124;23;20167;-87
2021/07/18 02:24:39;;;;;;;13.60;8.70;;;;;;;;;;6227272;23;20175;-87
2021/07/18 02:27:45;;;;;;;14.68;9.25;;;;;;;;;;6226140;23;20171;-87
2021/07/18 02:30:50;;;;;;;16.20;9.10;;;;;;;;;;6226664;23;20191;-85
2021/07/18 02:33:55;;;;;;;15.77;8.93;;;;;;;;;;6244058;23;20240;-88
2021/07/18 02:37:00;;;;;;;16.42;9.23;;;;;;;;;;6226271;22;20610;-86
2021/07/18 02:40:08;;;;;;;15.43;9.45;;;;;;;;;;6227007;23;20226;-87
2021/07/18 02:43:13;;;;;;;17.42;10.07;;;;;;;;;;6226485;23;20175;-89
2021/07/18 02:46:18;;;;;;;16.42;10.25;;;;;;;;;;6226806;23;20170;-89
2021/07/18 02:49:23;;;;;;;19.15;10.45;;;;;;;;;;6226839;23;20166;-88
2021/07/18 02:52:28;;;;;;;15.55;9.05;;;;;;;;;;6226618;23;20182;-90
2021/07/18 02:55:35;;;;;;;17.80;9.75;;;;;;;;;;6226574;23;20171;-90
2021/07/18 02:58:40;;;;;;;11.35;7.75;;;;;;;;;;6226272;23;20171;-89
2021/07/18 03:01:45;;;;;;;16.85;8.95;;;;;;;;;;6226879;23;20295;-89
2021/07/18 03:04:50;;;;;;;17.95;9.23;;;;;;;;;;6227063;23;20167;-88
2021/07/18 03:07:55;;;;;;;18.67;10.40;;;;;;;;;;6226626;23;20219;-89
2021/07/18 03:11:06;;;;;;;16.88;9.07;;;;;;;;;;6227196;23;20171;-90
2021/07/18 03:14:11;;;;;;;16.00;9.55;;;;;;;;;;6227946;23;20179;-88
2021/07/18 03:17:16;;;;;;;16.20;9.90;;;;;;;;;;6225829;22;20587;-89
2021/07/18 03:20:21;;;;;;;17.90;9.88;;;;;;;;;;6225779;23;20302;-88
2021/07/18 03:23:26;;;;;;;14.07;8.48;;;;;;;;;;6226169;23;20174;-89
2021/07/18 03:26:32;;;;;;;15.70;8.82;;;;;;;;;;6226599;23;20238;-89
2021/07/18 03:29:37;;;;;;;17.55;8.85;;;;;;;;;;6227277;23;20175;-88
2021/07/18 03:32:42;;;;;;;16.35;9.43;;;;;;;;;;6224535;23;20151;-88
2021/07/18 03:35:47;;;;;;;16.88;9.70;;;;;;;;;;6226133;23;20207;-89
2021/07/18 03:38:53;;;;;;;16.90;9.63;;;;;;;;;;6225610;23;20622;-88
2021/07/18 03:41:59;;;;;;;17.00;9.60;;;;;;;;;;6225993;23;20166;-87
2021/07/18 03:45:06;;;;;;;15.02;9.70;;;;;;;;;;6243577;23;20605;-87
2021/07/18 03:48:11;;;;;;;16.90;10.48;;;;;;;;;;6225324;23;20168;-88
2021/07/18 03:51:16;;;;;;;16.30;9.70;;;;;;;;;;6208582;23;20194;-88
2021/07/18 03:54:22;;;;;;;21.50;10.63;;;;;;;;;;6226943;23;20203;-89
2021/07/18 03:57:28;;;;;;;19.00;9.93;;;;;;;;;;6225451;23;20211;-90
2021/07/18 04:00:34;;;;;;;18.65;10.18;;;;;;;;;;6225801;23;20194;-89
2021/07/18 04:03:39;;;;;;;17.17;10.52;;;;;;;;;;6226408;23;20491;-90
2021/07/18 04:06:44;;;;;;;18.48;10.43;;;;;;;;;;6225468;23;20214;-90
2021/07/18 04:09:50;;;;;;;19.63;10.10;;;;;;;;;;6226041;23;20167;-90
2021/07/18 04:12:58;;;;;;;17.50;10.38;;;;;;;;;;6227411;23;20187;-88
2021/07/18 04:16:04;;;;;;;17.02;10.20;;;;;;;;;;6230363;23;20187;-88
2021/07/18 04:19:09;;;;;;;16.90;9.90;;;;;;;;;;6225135;23;20507;-88
2021/07/18 04:22:14;;;;;;;20.02;9.70;;;;;;;;;;6226652;23;20171;-88
2021/07/18 04:25:19;;;;;;;16.33;9.55;;;;;;;;;;6226028;23;20641;-89
2021/07/18 04:28:26;;;;;;;18.15;10.13;;;;;;;;;;6225169;23;20176;-89
2021/07/18 04:31:31;;;;;;;19.98;11.07;;;;;;;;;;6225431;23;20190;-88
2021/07/18 04:34:36;;;;;;;22.13;11.13;;;;;;;;;;6225651;23;20171;-88
2021/07/18 04:37:41;;;;;;;23.25;11.38;;;;;;;;;;6224734;23;20226;-90
2021/07/18 04:40:46;;;;;;;20.65;10.82;;;;;;;;;;6224729;23;20210;-89
2021/07/18 04:43:52;;;;;;;18.88;10.77;;;;;;;;;;6223852;23;20218;-89
2021/07/18 04:46:57;;;;;;;18.80;10.43;;;;;;;;;;6223843;23;20171;-88
2021/07/18 04:50:02;;;;;;;19.85;11.05;;;;;;;;;;6224784;23;20171;-87
2021/07/18 04:53:07;;;;;;;22.17;10.52;;;;;;;;;;6225004;22;20167;-89
2021/07/18 04:56:13;;;;;;;28.88;11.88;;;;;;;;;;6224078;23;20498;-86
2021/07/18 04:59:19;;;;;;;23.73;12.30;;;;;;;;;;6226083;23;20185;-90
2021/07/18 05:02:25;;;;;;;28.05;12.50;;;;;;;;;;6225417;23;20277;-89
2021/07/18 05:05:30;;;;;;;21.60;11.27;;;;;;;;;;6225048;23;20187;-87
2021/07/18 05:08:35;;;;;;;18.65;10.13;;;;;;;;;;6225445;23;20226;-90
2021/07/18 05:11:40;;;;;;;17.75;9.63;;;;;;;;;;6225339;23;20191;-89
2021/07/18 05:14:47;;;;;;;22.30;10.75;;;;;;;;;;6227910;23;20171;-87
2021/07/18 05:17:52;;;;;;;18.33;10.82;;;;;;;;;;6225735;23;20607;-89
2021/07/18 05:20:57;;;;;;;22.77;10.77;;;;;;;;;;6225812;23;20190;-89
2021/07/18 05:24:03;;;;;;;21.08;10.43;;;;;;;;;;6226128;23;20175;-88
2021/07/18 05:27:08;;;;;;;20.77;10.82;;;;;;;;;;6224201;23;20167;-90
2021/07/18 05:30:15;;;;;;;19.98;9.75;;;;;;;;;;6225282;23;20167;-89
2021/07/18 05:33:20;;;;;;;14.48;9.00;;;;;;;;;;6226050;23;20244;-87
2021/07/18 05:36:25;;;;;;;15.88;9.38;;;;;;;;;;6226608;23;20187;-88
2021/07/18 05:39:30;;;;;;;16.23;8.60;;;;;;;;;;6227031;23;20166;-87
2021/07/18 05:42:36;;;;;;;18.17;9.65;;;;;;;;;;6226877;23;20175;-87
2021/07/18 05:45:42;;;;;;;15.95;8.70;;;;;;;;;;6226607;23;20330;-88
2021/07/18 05:48:47;;;;;;;16.08;8.90;;;;;;;;;;6224071;23;20216;-86
2021/07/18 05:51:53;;;;;;;15.43;8.85;;;;;;;;;;6224306;23;20214;-88
2021/07/18 05:54:58;;;;;;;14.15;8.30;;;;;;;;;;6225450;23;20171;-88
2021/07/18 05:58:03;;;;;;;10.35;6.60;;;;;;;;;;6225047;23;20171;-87
2021/07/18 06:01:09;;;;;;;9.68;6.28;;;;;;;;;;6224113;23;20526;-89
2021/07/18 06:04:15;;;;;;;11.98;6.57;;;;;;;;;;6222599;23;20199;-87
2021/07/18 06:07:20;;;;;;;10.85;6.30;;;;;;;;;;6223508;23;20198;-88
2021/07/18 06:10:26;;;;;;;10.75;6.78;;;;;;;;;;6222599;23;20172;-86
2021/07/18 06:13:31;;;;;;;12.27;6.97;;;;;;;;;;6224034;23;20171;-86
2021/07/18 06:16:37;;;;;;;12.43;7.72;;;;;;;;;;6223652;23;20191;-86
2021/07/18 06:19:42;;;;;;;12.32;8.05;;;;;;;;;;6224305;23;20654;-87
2021/07/18 06:22:47;;;;;;;13.20;7.65;;;;;;;;;;6224546;23;20179;-87
2021/07/18 06:25:52;;;;;;;11.57;7.70;;;;;;;;;;6224352;23;20214;-86
2021/07/18 06:28:57;;;;;;;13.77;7.40;;;;;;;;;;6224131;23;20248;-86
2021/07/18 06:32:05;;;;;;;12.23;7.38;;;;;;;;;;6224263;23;20191;-87
2021/07/18 06:35:11;;;;;;;13.88;7.65;;;;;;;;;;6225196;23;20195;-86
2021/07/18 06:38:16;;;;;;;11.02;7.20;;;;;;;;;;6225360;23;20218;-87
2021/07/18 06:41:21;;;;;;;12.85;7.63;;;;;;;;;;6226354;23;20183;-87
2021/07/18 06:44:26;;;;;;;13.45;7.03;;;;;;;;;;6226167;23;20167;-85
2021/07/18 06:47:32;;;;;;;14.07;7.53;;;;;;;;;;6225295;23;20174;-86
2021/07/18 06:50:37;;;;;;;12.07;7.30;;;;;;;;;;6225634;23;20174;-87
2021/07/18 06:53:42;;;;;;;10.75;7.03;;;;;;;;;;6227285;23;20186;-86
2021/07/18 06:56:48;;;;;;;11.60;7.32;;;;;;;;;;6227270;23;20175;-88
2021/07/18 06:59:53;;;;;;;11.82;7.28;;;;;;;;;;6228700;23;20208;-87
2021/07/18 07:03:00;;;;;;;13.93;7.40;;;;;;;;;;6227106;23;20191;-88
2021/07/18 07:06:05;;;;;;;13.73;7.60;;;;;;;;;;6227416;23;20222;-87
2021/07/18 07:09:10;;;;;;;12.85;7.55;;;;;;;;;;6243099;23;20218;-86
2021/07/18 07:12:16;;;;;;;12.15;7.40;;;;;;;;;;6243513;23;20191;-87
2021/07/18 07:15:21;;;;;;;12.90;8.13;;;;;;;;;;6226484;23;20170;-89
2021/07/18 07:18:27;;;;;;;14.35;7.85;;;;;;;;;;6227635;23;20240;-88
2021/07/18 07:21:33;;;;;;;19.95;7.15;;;;;;;;;;6227262;23;20155;-87
2021/07/18 07:24:38;;;;;;;13.52;7.80;;;;;;;;;;6227031;23;20203;-88
2021/07/18 07:27:45;;;;;;;13.70;8.10;;;;;;;;;;6229508;23;20171;-86
2021/07/18 07:30:51;;;;;;;16.48;8.52;;;;;;;;;;6228868;23;20187;-88
2021/07/18 07:33:58;;;;;;;18.58;9.32;;;;;;;;;;6229155;23;20172;-85
2021/07/18 07:37:03;;;;;;;15.05;9.63;;;;;;;;;;6226901;23;20167;-89
2021/07/18 07:40:12;;;;;;;18.13;9.07;;;;;;;;;;6229633;23;20178;-87
2021/07/18 07:43:17;;;;;;;14.45;9.38;;;;;;;;;;6227465;23;20151;-88
2021/07/18 07:46:23;;;;;;;15.18;9.98;;;;;;;;;;6228632;23;20202;-86
2021/07/18 07:49:30;;;;;;;18.75;10.50;;;;;;;;;;6225913;23;20171;-88
2021/07/18 07:52:35;;;;;;;16.02;9.80;;;;;;;;;;6227981;23;20266;-87
2021/07/18 07:55:40;;;;;;;20.83;11.15;;;;;;;;;;6227317;23;20167;-87
2021/07/18 07:58:47;;;;;;;14.50;10.25;;;;;;;;;;6227049;23;20175;-85
2021/07/18 08:01:53;;;;;;;16.90;11.13;;;;;;;;;;6229086;23;20182;-88
2021/07/18 08:05:00;;;;;;;21.15;10.50;;;;;;;;;;6227647;23;20186;-87
2021/07/18 08:08:07;;;;;;;16.67;10.50;;;;;;;;;;6228543;23;20190;-89
2021/07/18 08:11:12;;;;;;;19.75;11.95;;;;;;;;;;6228350;23;20187;-86
2021/07/18 08:14:18;;;;;;;15.73;10.77;;;;;;;;;;6227310;22;20151;-86
2021/07/18 08:17:23;;;;;;;22.48;11.40;;;;;;;;;;6228941;23;20171;-87
2021/07/18 08:20:30;;;;;;;18.27;11.65;;;;;;;;;;6231416;23;20220;-88
2021/07/18 08:23:35;;;;;;;20.73;11.85;;;;;;;;;;6231279;23;20235;-87
2021/07/18 08:26:40;;;;;;;18.05;12.00;;;;;;;;;;6229931;23;20175;-87
2021/07/18 08:29:50;;;;;;;20.20;11.70;;;;;;;;;;6211450;23;20580;-85
2021/07/18 08:33:01;;;;;;;18.42;11.30;;;;;;;;;;6226322;23;20191;-88
2021/07/18 08:36:08;;;;;;;26.23;12.15;;;;;;;;;;6225396;23;20171;-86
2021/07/18 08:39:17;;;;;;;20.95;12.02;;;;;;;;;;6228399;23;20228;-87
2021/07/18 08:42:26;;;;;;;19.30;11.63;;;;;;;;;;6225060;23;20183;-89
2021/07/18 08:45:32;;;;;;;17.05;10.98;;;;;;;;;;6227055;23;20499;-87
2021/07/18 08:48:37;;;;;;;19.25;11.75;;;;;;;;;;6226160;23;20186;-89
2021/07/18 08:51:44;;;;;;;23.48;11.02;;;;;;;;;;6226492;23;20195;-86
2021/07/18 08:54:51;;;;;;;20.73;11.30;;;;;;;;;;6228659;23;20229;-87
2021/07/18 08:57:57;;;;;;;16.65;11.82;;;;;;;;;;6226702;23;20302;-88
2021/07/18 09:01:04;;;;;;;18.10;11.70;;;;;;;;;;6227199;23;20171;-89
2021/07/18 09:04:09;;;;;;;18.17;11.73;;;;;;;;;;6228031;23;20170;-88
2021/07/18 09:07:19;;;;;;;17.38;12.57;;;;;;;;;;6230003;23;20590;-88
2021/07/18 09:10:25;;;;;;;18.85;12.32;;;;;;;;;;6229342;23;20183;-90
2021/07/18 09:13:30;;;;;;;24.50;12.50;;;;;;;;;;6230739;23;20573;-87
2021/07/18 09:16:36;;;;;;;19.23;13.02;;;;;;;;;;6228368;23;20668;-86
2021/07/18 09:19:44;;;;;;;18.02;12.00;;;;;;;;;;6226850;23;20162;-88
2021/07/18 09:23:08;;;;;;;16.63;12.23;;;;;;;;;;6227190;23;20151;-88
2021/07/18 09:26:20;;;;;;;22.92;12.77;;;;;;;;;;6226870;23;20171;-87
2021/07/18 09:29:26;;;;;;;21.10;13.32;;;;;;;;;;6225382;23;20226;-87
2021/07/18 09:32:33;;;;;;;20.55;11.65;;;;;;;;;;6227642;23;20195;-86
2021/07/18 09:35:40;;;;;;;20.40;12.18;;;;;;;;;;6227079;23;20228;-89
2021/07/18 09:39:04;;;;;;;19.90;12.23;;;;;;;;;;6227584;23;20170;-88
2021/07/18 09:42:10;;;;;;;19.42;11.82;;;;;;;;;;6225805;23;20242;-88
2021/07/18 09:45:16;;;;;;;17.42;10.98;;;;;;;;;;6224489;23;20212;-88
2021/07/18 09:48:33;;;;;;;17.85;11.98;;;;;;;;;;6225647;23;20658;-87
2021/07/18 09:51:39;;;;;;;20.13;12.05;;;;;;;;;;6227128;23;20255;-88
2021/07/18 14:25:13;;;;;;;14.75;9.48;;;;;;;;;;6197010;23;20164;-89
2021/07/18 14:28:18;;;;;;;15.75;9.18;;;;;;;;;;6195293;23;20244;-87
2021/07/18 14:31:23;;;;;;;18.27;9.88;;;;;;;;;;6198314;23;20264;-88
2021/07/18 14:34:28;;;;;;;12.50;7.75;;;;;;;;;;6197526;23;20168;-91
2021/07/18 14:37:33;;;;;;;11.65;7.10;;;;;;;;;;6198661;23;20180;-90
2021/07/18 14:40:41;;;;;;;12.32;6.47;;;;;;;;;;6199798;23;20171;-88
2021/07/18 14:43:47;;;;;;;11.20;6.82;;;;;;;;;;6198899;23;20300;-86
2021/07/18 14:46:52;;;;;;;10.02;6.45;;;;;;;;;;6200527;23;20175;-89
2021/07/18 14:49:57;;;;;;;13.07;6.10;;;;;;;;;;6198892;23;20171;-86
2021/07/18 14:53:05;;;;;;;10.30;5.63;;;;;;;;;;6198632;23;20257;-87
2021/07/18 14:56:14;;;;;;;10.75;6.38;;;;;;;;;;6196421;23;20168;-88
2021/07/18 14:59:19;;;;;;;12.38;5.32;;;;;;;;;;6197330;23;20247;-89
2021/07/18 15:02:24;;;;;;;10.25;5.38;;;;;;;;;;6197795;23;20921;-87
2021/07/18 15:05:32;;;;;;;11.52;5.05;;;;;;;;;;6199668;23;20228;-86
2021/07/18 15:08:38;;;;;;;8.05;4.53;;;;;;;;;;6200154;23;20167;-88
2021/07/18 15:11:44;;;;;;;8.65;4.30;;;;;;;;;;6196415;23;20184;-87
2021/07/18 15:14:49;;;;;;;11.43;4.97;;;;;;;;;;6199586;23;20175;-89
2021/07/18 15:17:55;;;;;;;8.40;5.03;;;;;;;;;;6197952;23;20215;-89
2021/07/18 15:20:59;;;;;;;17.73;5.85;;;;;;;;;;6197423;23;20274;-87
2021/07/18 15:24:05;;;;;;;8.70;4.88;;;;;;;;;;6197390;23;20222;-88
2021/07/18 15:27:12;;;;;;;9.20;5.75;;;;;;;;;;6197973;23;20187;-88
2021/07/18 15:30:20;;;;;;;8.88;5.18;;;;;;;;;;6197734;23;20670;-90
2021/07/18 15:33:25;;;;;;;11.90;5.32;;;;;;;;;;6197057;23;20192;-89
2021/07/18 15:36:30;;;;;;;14.32;5.88;;;;;;;;;;6198402;23;20237;-86
2021/07/18 15:39:35;;;;;;;9.48;4.18;;;;;;;;;;6196033;23;20627;-87
2021/07/18 15:42:42;;;;;;;7.47;3.75;;;;;;;;;;6195100;23;20172;-87
2021/07/18 15:45:47;;;;;;;9.00;3.90;;;;;;;;;;6196328;23;20223;-87
2021/07/18 15:48:53;;;;;;;10.00;3.95;;;;;;;;;;6196140;23;20180;-87
2021/07/18 15:51:58;;;;;;;9.48;3.67;;;;;;;;;;6198436;23;20183;-90
2021/07/18 15:55:03;;;;;;;5.40;3.55;;;;;;;;;;6195771;23;20176;-90
2021/07/18 15:58:10;;;;;;;21.05;7.07;;;;;;;;;;6196747;23;20651;-88
2021/07/18 16:01:15;;;;;;;6.82;3.60;;;;;;;;;;6196845;23;20176;-87
2021/07/18 16:04:20;;;;;;;6.13;3.08;;;;;;;;;;6196552;23;20163;-88
2021/07/18 16:07:25;;;;;;;11.07;3.83;;;;;;;;;;6196138;23;20172;-89
2021/07/18 16:10:31;;;;;;;14.77;4.32;;;;;;;;;;6195561;23;20176;-89
2021/07/18 16:13:37;;;;;;;18.00;5.45;;;;;;;;;;6196960;23;20183;-87
2021/07/18 16:16:42;;;;;;;7.97;3.20;;;;;;;;;;6194599;23;20215;-86
2021/07/18 16:19:53;;;;;;;7.22;3.67;;;;;;;;;;6195153;23;20187;-89
2021/07/18 16:22:58;;;;;;;7.78;3.58;;;;;;;;;;6195524;23;20248;-87
2021/07/18 16:26:04;;;;;;;10.20;3.70;;;;;;;;;;6195435;23;20175;-90
2021/07/18 16:29:10;;;;;;;10.02;3.35;;;;;;;;;;6195617;23;20156;-87
2021/07/18 16:32:16;;;;;;;12.35;3.42;;;;;;;;;;6196424;23;20191;-88
2021/07/18 16:35:21;;;;;;;9.05;3.22;;;;;;;;;;6194042;23;20509;-90
2021/07/18 16:38:26;;;;;;;7.13;3.80;;;;;;;;;;6195032;23;20163;-88
2021/07/18 16:41:33;;;;;;;6.25;3.17;;;;;;;;;;6194999;23;20167;-87
2021/07/18 16:44:45;;;;;;;8.73;3.40;;;;;;;;;;6195310;23;20176;-87
2021/07/18 16:47:51;;;;;;;11.68;3.33;;;;;;;;;;6194346;23;20168;-88
2021/07/18 16:50:56;;;;;;;11.35;3.85;;;;;;;;;;6196789;23;20280;-86
2021/07/18 16:54:01;;;;;;;9.13;3.50;;;;;;;;;;6195353;23;20650;-88
2021/07/18 16:57:07;;;;;;;9.45;5.28;;;;;;;;;;6193905;23;20202;-90
2021/07/18 17:00:14;;;;;;;6.65;3.28;;;;;;;;;;6192820;23;20172;-88
2021/07/18 17:03:19;;;;;;;8.43;3.15;;;;;;;;;;6194095;23;20171;-89
2021/07/18 17:06:24;;;;;;;7.20;2.80;;;;;;;;;;6194878;23;20620;-87
2021/07/18 17:09:30;;;;;;;7.15;2.63;;;;;;;;;;6193930;23;20172;-90
2021/07/18 17:12:36;;;;;;;14.27;3.22;;;;;;;;;;6194795;23;20167;-87
2021/07/18 17:15:42;;;;;;;8.15;3.47;;;;;;;;;;6196624;23;20167;-87
2021/07/18 17:18:47;;;;;;;7.65;3.42;;;;;;;;;;6192523;23;20176;-89
2021/07/18 17:21:52;;;;;;;11.98;4.25;;;;;;;;;;6194536;23;20218;-88
2021/07/18 17:24:58;;;;;;;7.75;3.38;;;;;;;;;;6163771;23;20604;-86
2021/07/18 17:28:04;;;;;;;20.75;8.93;;;;;;;;;;6147179;23;20163;-86
2021/07/18 17:31:10;;;;;;;6.45;3.30;;;;;;;;;;6165716;23;20224;-88
2021/07/18 17:34:16;;;;;;;12.15;3.25;;;;;;;;;;6166699;23;20199;-87
2021/07/18 17:37:21;;;;;;;10.38;3.92;;;;;;;;;;6164829;23;20675;-87
2021/07/18 17:40:26;;;;;;;10.63;5.97;;;;;;;;;;6147541;23;20174;-89
2021/07/18 17:43:33;;;;;;;18.83;9.63;;;;;;;;;;6146433;23;20168;-88
2021/07/18 17:46:40;;;;;;;19.70;9.68;;;;;;;;;;6163344;23;20164;-87
2021/07/18 17:49:45;;;;;;;18.75;10.98;;;;;;;;;;6165130;23;20456;-87
2021/07/18 17:52:50;;;;;;;22.23;12.13;;;;;;;;;;6149893;23;20191;-90
2021/07/18 17:55:55;;;;;;;21.17;11.68;;;;;;;;;;6169174;23;20312;-89
2021/07/18 17:59:00;;;;;;;19.73;12.50;;;;;;;;;;6166145;23;20167;-89
2021/07/18 18:02:07;;;;;;;17.85;11.15;;;;;;;;;;6149469;23;20257;-88
2021/07/18 18:05:14;;;;;;;20.05;11.60;;;;;;;;;;6150271;23;20176;-90
2021/07/18 18:08:19;;;;;;;19.75;11.75;;;;;;;;;;6150120;23;20169;-89
2021/07/18 18:11:27;;;;;;;20.23;11.50;;;;;;;;;;6167478;23;20261;-88
2021/07/18 18:14:34;;;;;;;18.92;11.25;;;;;;;;;;6149561;23;20200;-89
2021/07/18 18:17:40;;;;;;;19.50;11.25;;;;;;;;;;6148551;23;20296;-87
2021/07/18 18:20:45;;;;;;;17.80;10.77;;;;;;;;;;6148614;23;20168;-87
2021/07/18 18:23:51;;;;;;;17.83;11.35;;;;;;;;;;6177904;23;20275;-87
2021/07/18 18:26:58;;;;;;;19.70;11.95;;;;;;;;;;6195114;23;20167;-87
2021/07/18 18:30:04;;;;;;;23.42;11.68;;;;;;;;;;6195365;23;20172;-87
2021/07/18 18:33:14;;;;;;;20.75;12.57;;;;;;;;;;6196444;23;20210;-88
2021/07/18 18:36:19;;;;;;;22.65;11.68;;;;;;;;;;6196691;23;20591;-89
2021/07/18 18:39:24;;;;;;;22.77;12.05;;;;;;;;;;6196958;23;20171;-88
2021/07/18 18:42:31;;;;;;;24.27;12.30;;;;;;;;;;6196891;23;20188;-88
2021/07/18 18:45:37;;;;;;;18.52;12.27;;;;;;;;;;6198908;23;20246;-88
2021/07/18 18:48:44;;;;;;;22.60;13.25;;;;;;;;;;6199103;23;20330;-87
2021/07/18 18:51:50;;;;;;;20.20;12.40;;;;;;;;;;6199565;23;20176;-86
2021/07/18 18:54:55;;;;;;;22.67;12.85;;;;;;;;;;6201217;23;20191;-87
2021/07/18 18:58:00;;;;;;;24.60;12.30;;;;;;;;;;6198885;23;20180;-89
2021/07/18 19:01:06;;;;;;;25.83;12.60;;;;;;;;;;6203182;23;20175;-88
2021/07/18 19:04:14;;;;;;;19.60;12.40;;;;;;;;;;6205498;23;20617;-88
2021/07/18 19:07:24;;;;;;;23.13;12.40;;;;;;;;;;6204189;23;20160;-89
2021/07/18 19:10:33;;;;;;;21.85;12.23;;;;;;;;;;6206036;23;20175;-88
2021/07/18 19:13:42;;;;;;;23.30;12.40;;;;;;;;;;6206731;23;20243;-88
2021/07/18 19:16:47;;;;;;;24.63;12.88;;;;;;;;;;6203474;23;20171;-87
2021/07/18 19:19:54;;;;;;;22.73;12.63;;;;;;;;;;6204821;23;20191;-89
2021/07/18 19:23:00;;;;;;;22.38;12.38;;;;;;;;;;6202488;23;20234;-88
2021/07/18 19:26:05;;;;;;;27.13;12.48;;;;;;;;;;6204989;23;20164;-88
2021/07/18 19:29:11;;;;;;;20.40;12.38;;;;;;;;;;6204525;23;20171;-88
2021/07/18 19:32:16;;;;;;;20.85;12.40;;;;;;;;;;6203422;23;20163;-89
2021/07/18 19:35:25;;;;;;;19.35;11.85;;;;;;;;;;6200739;23;20245;-88
2021/07/18 19:38:30;;;;;;;22.73;12.60;;;;;;;;;;6198952;23;20311;-87
2021/07/18 19:41:37;;;;;;;19.83;12.65;;;;;;;;;;6200015;23;20223;-88
2021/07/18 19:44:43;;;;;;;22.02;12.02;;;;;;;;;;6200058;23;20168;-89
2021/07/18 19:47:50;;;;;;;24.70;11.70;;;;;;;;;;6201297;23;20168;-88
2021/07/18 19:50:57;;;;;;;23.70;11.82;;;;;;;;;;6201047;23;20220;-87
2021/07/18 19:54:04;;;;;;;20.45;11.77;;;;;;;;;;6199157;23;20687;-88
2021/07/18 19:57:09;;;;;;;20.77;12.07;;;;;;;;;;6199109;23;20167;-89
2021/07/18 20:00:15;;;;;;;22.65;13.00;;;;;;;;;;6197348;23;20176;-86
2021/07/18 20:03:20;;;;;;;21.48;12.57;;;;;;;;;;6194981;23;20179;-87
2021/07/18 20:06:26;;;;;;;24.67;13.40;;;;;;;;;;6194240;23;20180;-87
2021/07/18 20:09:32;;;;;;;21.10;12.07;;;;;;;;;;6196503;23;20224;-86
2021/07/18 20:12:37;;;;;;;19.95;12.07;;;;;;;;;;6194778;23;20171;-86
2021/07/18 20:15:42;;;;;;;19.60;11.75;;;;;;;;;;6194992;23;20532;-89
2021/07/18 20:18:47;;;;;;;19.88;11.68;;;;;;;;;;6197083;23;20222;-88
2021/07/18 20:21:53;;;;;;;19.95;11.68;;;;;;;;;;6195296;23;20168;-86
2021/07/18 20:24:58;;;;;;;18.40;11.50;;;;;;;;;;6166865;23;20173;-85
2021/07/18 20:28:04;;;;;;;22.00;11.27;;;;;;;;;;6168071;23;20176;-87
2021/07/18 20:31:09;;;;;;;23.77;10.90;;;;;;;;;;6165726;23;20172;-85
2021/07/18 20:34:15;;;;;;;18.63;10.85;;;;;;;;;;6163836;23;20330;-88
2021/07/18 20:37:22;;;;;;;19.48;10.57;;;;;;;;;;6144707;23;20219;-86
2021/07/18 20:40:27;;;;;;;23.00;10.88;;;;;;;;;;6147787;23;20163;-87
2021/07/18 20:43:32;;;;;;;16.08;10.40;;;;;;;;;;6166872;23;20690;-86
2021/07/18 20:46:37;;;;;;;18.45;9.43;;;;;;;;;;6165200;23;20180;-89
2021/07/18 20:49:43;;;;;;;18.17;10.70;;;;;;;;;;6164438;23;20611;-87
2021/07/18 20:52:49;;;;;;;17.80;10.80;;;;;;;;;;6147885;23;20308;-88
2021/07/18 20:55:54;;;;;;;31.23;13.27;;;;;;;;;;6147489;23;20192;-87
2021/07/18 20:58:59;;;;;;;32.30;14.82;;;;;;;;;;6166742;23;20175;-88
2021/07/18 21:02:04;;;;;;;44.95;19.25;;;;;;;;;;6147100;23;20669;-88
2021/07/18 21:05:11;;;;;;;36.00;16.42;;;;;;;;;;6146545;23;20165;-87
2021/07/18 21:08:17;;;;;;;38.28;16.38;;;;;;;;;;6146062;23;20168;-87
2021/07/18 21:11:25;;;;;;;23.65;10.88;;;;;;;;;;6145361;23;20177;-87
2021/07/18 21:14:30;;;;;;;19.52;10.70;;;;;;;;;;6147528;23;20184;-87
2021/07/18 21:17:35;;;;;;;14.55;8.75;;;;;;;;;;6146883;23;20171;-87
2021/07/18 21:20:40;;;;;;;14.88;7.90;;;;;;;;;;6163286;23;20223;-86
2021/07/18 21:23:47;;;;;;;16.10;8.35;;;;;;;;;;6183027;23;20227;-87
2021/07/18 21:26:52;;;;;;;15.38;8.25;;;;;;;;;;6195431;23;20163;-87
2021/07/18 21:29:58;;;;;;;18.65;10.05;;;;;;;;;;6195277;23;20187;-87
2021/07/18 21:33:03;;;;;;;17.88;10.07;;;;;;;;;;6194608;23;20176;-88
2021/07/18 21:36:09;;;;;;;21.02;9.50;;;;;;;;;;6193437;23;20172;-87
2021/07/18 21:39:15;;;;;;;16.20;9.07;;;;;;;;;;6193449;23;20208;-87
2021/07/18 21:42:20;;;;;;;14.82;9.07;;;;;;;;;;6193645;23;20258;-87
2021/07/18 21:45:25;;;;;;;14.95;9.63;;;;;;;;;;6192580;23;20238;-87
2021/07/18 21:48:30;;;;;;;18.40;9.80;;;;;;;;;;6192662;23;20248;-87
2021/07/18 21:51:35;;;;;;;18.35;8.90;;;;;;;;;;6192897;23;20174;-88
2021/07/18 21:54:42;;;;;;;16.45;9.27;;;;;;;;;;6195190;23;20181;-86
2021/07/18 21:57:50;;;;;;;14.63;8.70;;;;;;;;;;6194573;23;20168;-87
2021/07/18 22:00:56;;;;;;;15.68;8.57;;;;;;;;;;6194500;23;20262;-88
2021/07/18 22:04:02;;;;;;;15.77;8.95;;;;;;;;;;6194790;23;20302;-85
2021/07/18 22:07:07;;;;;;;14.98;8.88;;;;;;;;;;6193270;23;20501;-88
2021/07/18 22:10:15;;;;;;;13.23;7.85;;;;;;;;;;6195348;23;20512;-86
2021/07/18 22:13:20;;;;;;;17.13;8.27;;;;;;;;;;6194740;23;20244;-87
2021/07/18 22:16:26;;;;;;;16.27;8.68;;;;;;;;;;6194768;23;20228;-87
2021/07/18 22:19:31;;;;;;;13.48;8.00;;;;;;;;;;6194718;23;20555;-87
2021/07/18 22:22:35;;;;;;;18.42;8.52;;;;;;;;;;6195045;23;20182;-87
2021/07/18 22:25:42;;;;;;;18.08;9.85;;;;;;;;;;6195300;23;20167;-85
2021/07/18 22:28:48;;;;;;;17.85;8.07;;;;;;;;;;6194344;23;20296;-86
2021/07/18 22:31:52;;;;;;;19.02;9.70;;;;;;;;;;6194752;23;20172;-86
2021/07/18 22:34:57;;;;;;;22.25;12.43;;;;;;;;;;6195950;23;20199;-87
2021/07/18 22:38:02;;;;;;;16.20;8.98;;;;;;;;;;6213348;23;20164;-87
2021/07/18 22:41:08;;;;;;;15.95;8.98;;;;;;;;;;6195218;23;20172;-87
2021/07/18 22:44:13;;;;;;;20.20;10.45;;;;;;;;;;6195207;23;20171;-87